createdAt,value
2018-12-05T00:01:36.673Z,100.00
2018-12-05T00:04:03.009Z,100.00
2018-12-05T00:06:29.330Z,100.00
2018-12-05T00:08:55.616Z,100.00
2018-12-05T00:11:21.911Z,100.00
2018-12-05T00:13:48.207Z,100.00
2018-12-05T00:16:14.504Z,100.00
2018-12-05T00:18:40.793Z,100.00
2018-12-05T00:21:07.097Z,100.00
2018-12-05T00:23:33.389Z,100.00
2018-12-05T00:25:59.688Z,100.00
2018-12-05T00:28:25.990Z,100.00
2018-12-05T00:30:52.297Z,100.00
2018-12-05T00:33:18.576Z,100.00
2018-12-05T00:35:44.871Z,100.00
2018-12-05T00:38:11.170Z,100.00
2018-12-05T00:40:37.468Z,100.00
2018-12-05T00:43:03.755Z,100.00
2018-12-05T00:45:30.059Z,100.00
2018-12-05T00:47:56.344Z,100.00
2018-12-05T00:50:22.651Z,100.00
2018-12-05T00:52:48.951Z,100.00
2018-12-05T00:55:15.252Z,100.00
2018-12-05T00:57:41.538Z,100.00
2018-12-05T01:00:07.856Z,100.00
2018-12-05T01:02:34.134Z,100.00
2018-12-05T01:05:00.447Z,100.00
2018-12-05T01:07:26.737Z,100.00
2018-12-05T01:09:53.044Z,100.00
2018-12-05T01:12:19.328Z,100.00
2018-12-05T01:14:45.626Z,100.00
2018-12-05T01:17:11.921Z,100.00
2018-12-05T01:19:38.210Z,100.00
2018-12-05T01:22:04.512Z,100.00
2018-12-05T01:24:30.819Z,100.00
2018-12-05T01:26:57.099Z,100.00
2018-12-05T01:29:23.396Z,100.00
2018-12-05T01:31:49.697Z,100.00
2018-12-05T01:34:16.006Z,100.00
2018-12-05T01:36:42.348Z,100.00
2018-12-05T01:39:08.662Z,100.00
2018-12-05T01:41:34.978Z,100.00
2018-12-05T01:44:01.329Z,100.00
2018-12-05T01:46:27.617Z,100.00
2018-12-05T01:48:53.924Z,100.00
2018-12-05T01:51:20.202Z,100.00
2018-12-05T01:53:46.540Z,100.00
2018-12-05T01:56:12.838Z,100.00
2018-12-05T01:58:39.136Z,100.00
2018-12-05T02:01:05.427Z,100.00
2018-12-05T02:03:31.741Z,100.00
2018-12-05T02:05:58.054Z,100.00
2018-12-05T02:08:24.359Z,100.00
2018-12-05T02:10:50.687Z,100.00
2018-12-05T02:13:16.991Z,100.00
2018-12-05T02:15:43.312Z,100.00
2018-12-05T02:18:09.614Z,100.00
2018-12-05T02:20:35.951Z,100.00
2018-12-05T02:23:02.247Z,100.00
2018-12-05T02:25:28.546Z,100.00
2018-12-05T02:27:54.848Z,100.00
2018-12-05T02:30:21.142Z,100.00
2018-12-05T02:32:47.435Z,100.00
2018-12-05T02:35:13.740Z,100.00
2018-12-05T02:37:40.032Z,100.00
2018-12-05T02:40:06.335Z,100.00
2018-12-05T02:42:32.637Z,100.00
2018-12-05T02:44:58.923Z,100.00
2018-12-05T02:47:25.273Z,100.00
2018-12-05T02:49:51.553Z,100.00
2018-12-05T02:52:17.858Z,100.00
2018-12-05T02:54:44.145Z,100.00
2018-12-05T02:57:10.443Z,100.00
2018-12-05T02:59:36.738Z,100.00
2018-12-05T03:02:03.048Z,100.00
2018-12-05T03:04:29.332Z,100.00
2018-12-05T03:06:55.632Z,100.00
2018-12-05T03:09:21.925Z,100.00
2018-12-05T03:11:48.235Z,100.00
2018-12-05T03:14:14.511Z,100.00
2018-12-05T03:16:40.828Z,100.00
2018-12-05T03:19:07.099Z,100.00
2018-12-05T03:21:33.400Z,100.00
2018-12-05T03:23:59.697Z,100.00
2018-12-05T03:26:26.005Z,100.00
2018-12-05T03:28:52.334Z,100.00
2018-12-05T03:31:18.635Z,100.00
2018-12-05T03:33:44.928Z,100.00
2018-12-05T03:36:11.219Z,100.00
2018-12-05T03:38:37.511Z,100.00
2018-12-05T03:41:03.819Z,100.00
2018-12-05T03:43:30.094Z,100.00
2018-12-05T03:45:56.388Z,100.00
2018-12-05T03:48:22.691Z,100.00
2018-12-05T03:50:48.995Z,100.00
2018-12-05T03:53:15.280Z,100.00
2018-12-05T03:55:41.590Z,100.00
2018-12-05T03:58:07.876Z,100.00
2018-12-05T04:00:34.173Z,100.00
2018-12-05T04:03:00.468Z,100.00
2018-12-05T04:05:26.776Z,100.00
2018-12-05T04:07:53.066Z,100.00
2018-12-05T04:10:19.355Z,100.00
2018-12-05T04:12:45.651Z,100.00
2018-12-05T04:15:11.950Z,100.00
2018-12-05T04:17:38.243Z,100.00
2018-12-05T04:20:04.551Z,100.00
2018-12-05T04:22:30.830Z,100.00
2018-12-05T04:24:57.179Z,100.00
2018-12-05T04:27:23.469Z,100.00
2018-12-05T04:29:49.792Z,100.00
2018-12-05T04:32:16.105Z,100.00
2018-12-05T04:34:42.435Z,100.00
2018-12-05T04:37:08.753Z,100.00
2018-12-05T04:39:35.045Z,100.00
2018-12-05T04:42:01.347Z,100.00
2018-12-05T04:44:27.653Z,100.00
2018-12-05T04:46:53.946Z,100.00
2018-12-05T04:49:20.256Z,100.00
2018-12-05T04:51:46.548Z,100.00
2018-12-05T04:54:12.847Z,100.00
2018-12-05T04:56:39.164Z,100.00
2018-12-05T04:59:05.451Z,100.00
2018-12-05T05:01:31.738Z,100.00
2018-12-05T05:03:58.033Z,100.00
2018-12-05T05:06:24.331Z,100.00
2018-12-05T05:08:50.639Z,100.00
2018-12-05T05:11:16.925Z,100.00
2018-12-05T05:13:43.232Z,100.00
2018-12-05T05:16:09.511Z,100.00
2018-12-05T05:18:35.804Z,100.00
2018-12-05T05:21:02.116Z,100.00
2018-12-05T05:23:28.418Z,100.00
2018-12-05T05:25:54.748Z,100.00
2018-12-05T05:28:21.053Z,100.00
2018-12-05T05:30:47.347Z,100.00
2018-12-05T05:33:13.645Z,100.00
2018-12-05T05:35:39.947Z,100.00
2018-12-05T05:38:06.246Z,100.00
2018-12-05T05:40:32.522Z,100.00
2018-12-05T05:42:58.815Z,100.00
2018-12-05T05:45:25.117Z,100.00
2018-12-05T05:47:51.419Z,100.00
2018-12-05T05:50:17.707Z,100.00
2018-12-05T05:52:44.013Z,100.00
2018-12-05T05:55:10.349Z,100.00
2018-12-05T05:57:36.681Z,100.00
2018-12-05T06:00:06.847Z,100.00
2018-12-05T06:02:33.222Z,100.00
2018-12-05T06:04:59.539Z,100.00
2018-12-05T06:07:25.869Z,100.00
2018-12-05T06:09:52.160Z,100.00
2018-12-05T06:12:18.510Z,100.00
2018-12-05T06:14:44.853Z,100.00
2018-12-05T06:17:11.144Z,100.00
2018-12-05T06:19:37.478Z,100.00
2018-12-05T06:22:03.826Z,100.00
2018-12-05T06:24:30.884Z,100.00
2018-12-05T06:26:56.541Z,100.00
2018-12-05T06:29:22.870Z,100.00
2018-12-05T06:31:49.212Z,100.00
2018-12-05T06:34:15.536Z,100.00
2018-12-05T06:36:41.872Z,100.00
2018-12-05T06:39:08.217Z,100.00
2018-12-05T06:41:34.623Z,100.00
2018-12-05T06:44:00.951Z,100.00
2018-12-05T06:46:27.282Z,100.00
2018-12-05T06:48:53.719Z,100.00
2018-12-05T06:51:20.148Z,100.00
2018-12-05T06:53:46.504Z,100.00
2018-12-05T06:56:12.918Z,100.00
2018-12-05T06:58:39.237Z,100.00
2018-12-05T07:01:05.576Z,100.00
2018-12-05T07:03:31.925Z,100.00
2018-12-05T07:05:58.263Z,94.56
2018-12-05T07:08:24.554Z,95.24
2018-12-05T07:10:50.868Z,97.58
2018-12-05T07:13:17.157Z,94.94
2018-12-05T07:15:43.461Z,93.06
2018-12-05T07:18:09.752Z,93.47
2018-12-05T07:20:36.067Z,92.20
2018-12-05T07:23:02.346Z,90.36
2018-12-05T07:25:28.651Z,90.54
2018-12-05T07:27:54.938Z,90.95
2018-12-05T07:30:21.236Z,90.12
2018-12-05T07:32:47.542Z,90.15
2018-12-05T07:35:13.849Z,88.65
2018-12-05T07:37:40.122Z,86.82
2018-12-05T07:40:06.425Z,87.41
2018-12-05T07:42:32.767Z,85.40
2018-12-05T07:44:59.069Z,86.29
2018-12-05T07:47:25.382Z,86.09
2018-12-05T07:49:51.687Z,84.09
2018-12-05T07:52:17.968Z,84.39
2018-12-05T07:54:44.263Z,82.21
2018-12-05T07:57:10.733Z,85.40
2018-12-05T07:59:37.019Z,83.91
2018-12-05T08:02:03.313Z,83.08
2018-12-05T08:04:29.612Z,83.60
2018-12-05T08:06:55.901Z,80.95
2018-12-05T08:09:22.250Z,81.64
2018-12-05T08:11:48.579Z,80.38
2018-12-05T08:14:14.829Z,81.05
2018-12-05T08:16:41.142Z,81.29
2018-12-05T08:19:07.444Z,79.75
2018-12-05T08:21:33.736Z,78.08
2018-12-05T08:24:00.027Z,74.91
2018-12-05T08:26:26.353Z,73.34
2018-12-05T08:28:52.629Z,71.70
2018-12-05T08:31:18.943Z,74.15
2018-12-05T08:33:45.239Z,73.17
2018-12-05T08:36:11.534Z,72.27
2018-12-05T08:38:37.826Z,69.76
2018-12-05T08:41:04.142Z,70.67
2018-12-05T08:43:30.440Z,70.10
2018-12-05T08:45:56.735Z,67.66
2018-12-05T08:48:23.036Z,67.77
2018-12-05T08:50:49.364Z,67.76
2018-12-05T08:53:15.650Z,67.69
2018-12-05T08:55:41.965Z,66.77
2018-12-05T08:58:08.281Z,67.17
2018-12-05T09:00:34.584Z,66.36
2018-12-05T09:03:00.866Z,65.58
2018-12-05T09:05:27.199Z,64.49
2018-12-05T09:07:53.494Z,67.02
2018-12-05T09:10:19.794Z,67.66
2018-12-05T09:12:46.103Z,66.32
2018-12-05T09:15:12.399Z,65.44
2018-12-05T09:17:38.772Z,64.36
2018-12-05T09:20:05.045Z,65.88
2018-12-05T09:22:31.346Z,67.05
2018-12-05T09:24:57.640Z,67.85
2018-12-05T09:27:23.946Z,67.91
2018-12-05T09:29:50.238Z,70.08
2018-12-05T09:32:16.525Z,71.87
2018-12-05T09:34:42.829Z,71.63
2018-12-05T09:37:09.140Z,73.36
2018-12-05T09:39:35.447Z,72.32
2018-12-05T09:42:01.730Z,73.22
2018-12-05T09:44:28.031Z,73.65
2018-12-05T09:46:54.323Z,73.90
2018-12-05T09:49:20.628Z,74.01
2018-12-05T09:51:46.918Z,73.87
2018-12-05T09:54:13.222Z,73.98
2018-12-05T09:56:39.545Z,74.73
2018-12-05T09:59:05.857Z,74.61
2018-12-05T10:01:32.146Z,74.37
2018-12-05T10:03:58.459Z,74.84
2018-12-05T10:06:24.952Z,75.53
2018-12-05T10:08:51.252Z,75.98
2018-12-05T10:11:17.543Z,75.57
2018-12-05T10:13:43.850Z,76.53
2018-12-05T10:16:10.147Z,76.37
2018-12-05T10:18:36.438Z,76.15
2018-12-05T10:21:02.725Z,76.66
2018-12-05T10:23:29.036Z,77.76
2018-12-05T10:25:55.327Z,77.70
2018-12-05T10:28:21.638Z,77.96
2018-12-05T10:30:47.935Z,77.56
2018-12-05T10:33:14.221Z,78.05
2018-12-05T10:35:40.509Z,78.64
2018-12-05T10:38:06.816Z,78.79
2018-12-05T10:40:33.118Z,78.66
2018-12-05T10:42:59.422Z,78.69
2018-12-05T10:45:25.721Z,78.77
2018-12-05T10:47:52.057Z,78.67
2018-12-05T10:50:18.345Z,79.04
2018-12-05T10:52:44.650Z,78.61
2018-12-05T10:55:10.952Z,78.89
2018-12-05T10:57:37.252Z,79.46
2018-12-05T11:00:07.467Z,79.42
2018-12-05T11:02:33.777Z,79.41
2018-12-05T11:05:00.067Z,79.63
2018-12-05T11:07:26.378Z,79.81
2018-12-05T11:09:52.671Z,78.89
2018-12-05T11:12:18.970Z,78.24
2018-12-05T11:14:45.250Z,78.57
2018-12-05T11:17:11.559Z,77.82
2018-12-05T11:19:37.854Z,78.32
2018-12-05T11:22:04.191Z,77.88
2018-12-05T11:24:30.532Z,78.03
2018-12-05T11:26:56.826Z,78.22
2018-12-05T11:29:23.112Z,78.51
2018-12-05T11:31:49.425Z,78.13
2018-12-05T11:34:15.756Z,78.18
2018-12-05T11:36:42.047Z,78.44
2018-12-05T11:39:08.348Z,78.73
2018-12-05T11:41:34.670Z,78.29
2018-12-05T11:44:00.941Z,78.20
2018-12-05T11:46:27.247Z,78.63
2018-12-05T11:48:53.543Z,78.95
2018-12-05T11:51:19.834Z,79.11
2018-12-05T11:53:46.134Z,78.81
2018-12-05T11:56:12.485Z,78.49
2018-12-05T11:58:38.786Z,78.51
2018-12-05T12:01:05.089Z,79.00
2018-12-05T12:03:31.420Z,79.25
2018-12-05T12:05:57.685Z,79.34
2018-12-05T12:08:23.963Z,78.70
2018-12-05T12:10:50.293Z,78.90
2018-12-05T12:13:16.764Z,79.10
2018-12-05T12:15:43.024Z,77.85
2018-12-05T12:18:09.345Z,78.01
2018-12-05T12:20:35.724Z,77.89
2018-12-05T12:23:02.008Z,78.06
2018-12-05T12:25:28.329Z,78.50
2018-12-05T12:27:54.627Z,78.12
2018-12-05T12:30:20.970Z,78.72
2018-12-05T12:32:47.255Z,78.43
2018-12-05T12:35:13.564Z,77.99
2018-12-05T12:37:40.109Z,78.10
2018-12-05T12:40:06.429Z,78.64
2018-12-05T12:42:32.835Z,78.77
2018-12-05T12:44:59.091Z,78.92
2018-12-05T12:47:25.421Z,78.68
2018-12-05T12:49:51.727Z,78.97
2018-12-05T12:52:18.016Z,78.85
2018-12-05T12:54:44.370Z,78.70
2018-12-05T12:57:10.594Z,78.84
2018-12-05T12:59:36.945Z,78.59
2018-12-05T13:02:03.292Z,78.82
2018-12-05T13:04:29.609Z,78.49
2018-12-05T13:06:55.913Z,78.78
2018-12-05T13:09:22.197Z,78.80
2018-12-05T13:11:48.507Z,79.27
2018-12-05T13:14:14.800Z,79.35
2018-12-05T13:16:41.083Z,78.94
2018-12-05T13:19:07.392Z,78.81
2018-12-05T13:21:33.742Z,79.42
2018-12-05T13:24:00.049Z,79.20
2018-12-05T13:26:26.386Z,79.72
2018-12-05T13:28:52.682Z,78.99
2018-12-05T13:31:18.957Z,79.24
2018-12-05T13:33:45.264Z,79.39
2018-12-05T13:36:11.551Z,79.24
2018-12-05T13:38:37.880Z,79.43
2018-12-05T13:41:04.169Z,79.30
2018-12-05T13:43:30.471Z,78.93
2018-12-05T13:45:56.758Z,78.83
2018-12-05T13:48:23.065Z,78.62
2018-12-05T13:50:49.356Z,78.39
2018-12-05T13:53:15.643Z,78.36
2018-12-05T13:55:42.821Z,78.52
2018-12-05T13:58:09.204Z,78.24
2018-12-05T14:00:35.483Z,78.37
2018-12-05T14:03:01.796Z,78.55
2018-12-05T14:05:28.091Z,78.51
2018-12-05T14:07:54.678Z,78.25
2018-12-05T14:10:20.958Z,78.60
2018-12-05T14:12:47.823Z,78.58
2018-12-05T14:15:13.564Z,78.73
2018-12-05T14:17:39.900Z,78.60
2018-12-05T14:20:06.214Z,78.66
2018-12-05T14:22:32.505Z,78.75
2018-12-05T14:24:58.796Z,78.86
2018-12-05T14:27:25.111Z,78.81
2018-12-05T14:29:51.403Z,79.03
2018-12-05T14:32:17.700Z,78.73
2018-12-05T14:34:43.983Z,78.95
2018-12-05T14:37:10.293Z,78.94
2018-12-05T14:39:36.568Z,78.34
2018-12-05T14:42:02.910Z,78.19
2018-12-05T14:44:29.211Z,78.43
2018-12-05T14:46:55.498Z,78.60
2018-12-05T14:49:21.779Z,78.53
2018-12-05T14:51:48.084Z,77.85
2018-12-05T14:54:14.395Z,77.99
2018-12-05T14:56:40.733Z,77.10
2018-12-05T14:59:07.030Z,77.40
2018-12-05T15:01:33.325Z,77.22
2018-12-05T15:03:59.648Z,76.82
2018-12-05T15:06:25.951Z,77.33
2018-12-05T15:08:52.242Z,76.45
2018-12-05T15:11:18.562Z,76.33
2018-12-05T15:13:44.826Z,75.77
2018-12-05T15:16:11.174Z,75.76
2018-12-05T15:18:37.457Z,75.86
2018-12-05T15:21:03.817Z,75.31
2018-12-05T15:23:30.115Z,75.52
2018-12-05T15:25:56.406Z,75.87
2018-12-05T15:28:22.701Z,75.17
2018-12-05T15:30:49.052Z,74.73
2018-12-05T15:33:15.354Z,74.81
2018-12-05T15:35:41.639Z,74.88
2018-12-05T15:38:08.173Z,74.61
2018-12-05T15:40:34.465Z,74.68
2018-12-05T15:43:00.817Z,74.74
2018-12-05T15:45:27.111Z,74.56
2018-12-05T15:47:53.443Z,73.91
2018-12-05T15:50:19.734Z,73.82
2018-12-05T15:52:46.023Z,73.73
2018-12-05T15:55:12.326Z,73.78
2018-12-05T15:57:38.603Z,73.51
2018-12-05T16:00:05.869Z,73.39
2018-12-05T16:02:32.166Z,73.38
2018-12-05T16:04:58.453Z,73.32
2018-12-05T16:07:24.733Z,73.22
2018-12-05T16:09:51.034Z,72.81
2018-12-05T16:12:17.335Z,72.50
2018-12-05T16:14:43.624Z,72.47
2018-12-05T16:17:09.918Z,72.69
2018-12-05T16:19:36.204Z,72.97
2018-12-05T16:22:02.494Z,72.47
2018-12-05T16:24:28.790Z,72.53
2018-12-05T16:26:55.082Z,72.54
2018-12-05T16:29:21.382Z,72.77
2018-12-05T16:31:47.672Z,72.84
2018-12-05T16:34:14.004Z,73.05
2018-12-05T16:36:40.280Z,72.62
2018-12-05T16:39:06.612Z,72.54
2018-12-05T16:41:32.880Z,72.61
2018-12-05T16:44:00.538Z,72.88
2018-12-05T16:46:25.465Z,72.84
2018-12-05T16:48:51.775Z,73.05
2018-12-05T16:51:18.113Z,73.23
2018-12-05T16:53:44.486Z,73.25
2018-12-05T16:56:10.777Z,73.40
2018-12-05T16:58:37.061Z,73.30
2018-12-05T17:01:03.387Z,73.44
2018-12-05T17:03:29.777Z,73.75
2018-12-05T17:05:56.004Z,73.79
2018-12-05T17:08:22.295Z,73.65
2018-12-05T17:10:48.593Z,74.02
2018-12-05T17:13:14.907Z,73.94
2018-12-05T17:15:41.219Z,74.16
2018-12-05T17:18:07.498Z,74.32
2018-12-05T17:20:33.802Z,74.65
2018-12-05T17:23:00.102Z,74.72
2018-12-05T17:25:26.432Z,74.90
2018-12-05T17:27:52.747Z,74.85
2018-12-05T17:30:20.257Z,74.80
2018-12-05T17:32:46.554Z,74.58
2018-12-05T17:35:12.853Z,74.51
2018-12-05T17:37:39.145Z,74.79
2018-12-05T17:40:05.475Z,74.78
2018-12-05T17:42:31.780Z,74.26
2018-12-05T17:44:58.086Z,74.27
2018-12-05T17:47:24.390Z,74.30
2018-12-05T17:49:50.717Z,74.01
2018-12-05T17:52:17.066Z,73.88
2018-12-05T17:54:43.352Z,73.93
2018-12-05T17:57:09.676Z,74.26
2018-12-05T17:59:35.968Z,73.88
2018-12-05T18:02:02.277Z,73.53
2018-12-05T18:04:28.554Z,73.65
2018-12-05T18:06:54.860Z,73.33
2018-12-05T18:09:21.155Z,73.39
2018-12-05T18:11:47.446Z,73.44
2018-12-05T18:14:13.769Z,73.19
2018-12-05T18:16:40.033Z,72.81
2018-12-05T18:19:06.353Z,72.69
2018-12-05T18:21:32.674Z,72.63
2018-12-05T18:23:58.949Z,72.55
2018-12-05T18:26:25.295Z,72.90
2018-12-05T18:28:51.593Z,72.72
2018-12-05T18:31:18.108Z,72.71
2018-12-05T18:33:44.422Z,72.63
2018-12-05T18:36:10.702Z,72.57
2018-12-05T18:38:37.005Z,72.63
2018-12-05T18:41:03.305Z,72.99
2018-12-05T18:43:29.970Z,73.47
2018-12-05T18:45:56.250Z,73.33
2018-12-05T18:48:22.604Z,73.62
2018-12-05T18:50:48.902Z,73.14
2018-12-05T18:53:15.240Z,73.71
2018-12-05T18:55:41.543Z,73.55
2018-12-05T18:58:07.843Z,73.86
2018-12-05T19:00:34.164Z,74.02
2018-12-05T19:03:00.549Z,74.14
2018-12-05T19:05:26.769Z,74.43
2018-12-05T19:07:53.901Z,74.13
2018-12-05T19:10:20.235Z,74.37
2018-12-05T19:12:47.069Z,74.77
2018-12-05T19:15:14.040Z,74.23
2018-12-05T19:17:40.959Z,74.53
2018-12-05T19:20:08.006Z,74.54
2018-12-05T19:22:34.849Z,74.57
2018-12-05T19:25:01.780Z,74.69
2018-12-05T19:27:28.681Z,74.93
2018-12-05T19:29:55.686Z,75.22
2018-12-05T19:32:22.645Z,75.32
2018-12-05T19:34:48.942Z,75.37
2018-12-05T19:37:15.263Z,75.37
2018-12-05T19:39:41.563Z,75.64
2018-12-05T19:42:07.869Z,75.49
2018-12-05T19:44:34.177Z,75.56
2018-12-05T19:47:00.554Z,75.45
2018-12-05T19:49:26.915Z,75.42
2018-12-05T19:51:53.253Z,75.46
2018-12-05T19:54:19.540Z,75.37
2018-12-05T19:56:45.880Z,75.71
2018-12-05T19:59:12.205Z,75.92
2018-12-05T20:01:38.515Z,76.10
2018-12-05T20:04:04.845Z,75.87
2018-12-05T20:06:31.135Z,76.23
2018-12-05T20:08:57.441Z,76.19
2018-12-05T20:11:23.766Z,76.30
2018-12-05T20:13:50.074Z,76.38
2018-12-05T20:16:16.437Z,76.38
2018-12-05T20:18:42.807Z,76.59
2018-12-05T20:21:09.130Z,76.61
2018-12-05T20:23:35.428Z,76.73
2018-12-05T20:26:01.737Z,76.72
2018-12-05T20:28:28.293Z,76.80
2018-12-05T20:30:54.606Z,76.65
2018-12-05T20:33:20.886Z,76.95
2018-12-05T20:35:47.195Z,77.19
2018-12-05T20:38:13.496Z,77.32
2018-12-05T20:40:39.896Z,77.21
2018-12-05T20:43:06.079Z,77.04
2018-12-05T20:45:32.436Z,77.37
2018-12-05T20:47:58.817Z,77.27
2018-12-05T20:50:25.409Z,77.26
2018-12-05T20:52:51.780Z,77.47
2018-12-05T20:55:18.242Z,77.41
2018-12-05T20:57:44.585Z,78.21
2018-12-05T21:00:10.881Z,78.29
2018-12-05T21:02:37.182Z,77.74
2018-12-05T21:05:03.544Z,77.67
2018-12-05T21:07:29.837Z,77.69
2018-12-05T21:09:56.176Z,77.57
2018-12-05T21:12:22.473Z,77.51
2018-12-05T21:14:48.769Z,77.54
2018-12-05T21:17:15.067Z,77.36
2018-12-05T21:19:41.394Z,77.20
2018-12-05T21:22:07.677Z,77.35
2018-12-05T21:24:33.974Z,77.40
2018-12-05T21:27:00.273Z,77.51
2018-12-05T21:29:26.562Z,77.73
2018-12-05T21:31:52.856Z,77.62
2018-12-05T21:34:19.168Z,77.97
2018-12-05T21:36:45.450Z,77.90
2018-12-05T21:39:11.750Z,78.11
2018-12-05T21:41:38.045Z,78.13
2018-12-05T21:44:04.378Z,78.09
2018-12-05T21:46:30.681Z,78.15
2018-12-05T21:48:57.005Z,78.30
2018-12-05T21:51:23.288Z,78.22
2018-12-05T21:53:49.583Z,78.33
2018-12-05T21:56:15.872Z,78.39
2018-12-05T21:58:42.173Z,78.08
2018-12-05T22:01:08.444Z,78.14
2018-12-05T22:03:34.776Z,78.52
2018-12-05T22:06:01.086Z,78.59
2018-12-05T22:08:27.383Z,78.32
2018-12-05T22:10:53.860Z,78.32
2018-12-05T22:13:21.389Z,78.17
2018-12-05T22:15:47.661Z,77.97
2018-12-05T22:18:13.975Z,78.04
2018-12-05T22:20:40.335Z,77.76
2018-12-05T22:23:06.658Z,77.73
2018-12-05T22:25:32.929Z,77.97
2018-12-05T22:27:59.234Z,77.66
2018-12-05T22:30:25.518Z,77.65
2018-12-05T22:32:51.811Z,77.53
2018-12-05T22:35:18.105Z,77.25
2018-12-05T22:37:44.409Z,77.03
2018-12-05T22:40:10.712Z,76.84
2018-12-05T22:42:36.998Z,76.91
2018-12-05T22:45:03.298Z,76.92
2018-12-05T22:47:29.609Z,77.06
2018-12-05T22:49:55.908Z,76.63
2018-12-05T22:52:22.208Z,76.85
2018-12-05T22:54:48.481Z,76.83
2018-12-05T22:57:14.799Z,76.75
2018-12-05T22:59:41.141Z,76.92
2018-12-05T23:02:07.441Z,76.77
2018-12-05T23:04:33.720Z,77.12
2018-12-05T23:07:00.028Z,76.75
2018-12-05T23:09:26.315Z,77.06
2018-12-05T23:11:52.635Z,77.28
2018-12-05T23:14:18.967Z,77.11
2018-12-05T23:16:45.263Z,77.04
2018-12-05T23:19:11.579Z,77.19
2018-12-05T23:21:37.872Z,77.05
2018-12-05T23:24:04.172Z,76.94
2018-12-05T23:26:30.464Z,77.05
2018-12-05T23:28:56.759Z,77.21
2018-12-05T23:31:23.063Z,77.52
2018-12-05T23:33:49.351Z,77.32
2018-12-05T23:36:15.650Z,77.60
2018-12-05T23:38:41.961Z,77.61
2018-12-05T23:41:08.257Z,77.73
2018-12-05T23:43:34.609Z,77.77
2018-12-05T23:46:00.898Z,77.54
2018-12-05T23:48:27.188Z,77.61
2018-12-05T23:50:53.596Z,77.72
2018-12-05T23:53:19.872Z,77.51
2018-12-05T23:55:46.187Z,77.53
2018-12-05T23:58:12.539Z,77.61
